Davenport Municipal, IA

4:22 PM CST on November 23, 2014 (GMT -0600)
Davenport Municipal | Change Station
CLOSE
Current Station
Airport
Location: Davenport,
Elevation: 755 ft
Nearby Weather Stations
Active Advisory: Winter Weather Advisory Active Notice: Record Report

Elev 755 ft 41.61 °N, 90.59 °W | Updated 30 minutes ago

Rain
Rain
51 °F
Feels Like 51 °F
N
12
Wind Variable Wind from SSE

Today
High -- | Low -- °F
--% Chance of Precip.
Yesterday
High -- | Low -- °F
Precip. -- in
7:00 AM 4:36 PM
New Moon, 2% visible
Pressure 29.37 in
Visibility 2.0 miles
Clouds Mostly Cloudy 800 ft
Overcast 1100 ft
Dew Point 49 °F
Humidity 92%
Rainfall 1.07 in
Snow Depth Not available.
UV 0 out of 12
Pollen .10 out of 12
Air Quality Not available.
Flu Activity Not available.
METAR KDVN 232152Z AUTO 16010KT 2SM -RA BR BKN008 OVC011 11/09 A2936 RMK AO2 SLP943 P0004 T01060094

More Conditions Fewer Conditions

Pressure 29.37 in
Visibility 2.0 miles
Clouds Mostly Cloudy 800 ft
Overcast 1100 ft
Dew Point 49 °F
Humidity 92%
Rainfall 1.07 in
Snow Depth Not available.
UV 0 out of 12
Pollen .10 out of 12
Air Quality Not available.
Flu Activity Not available.
METAR KDVN 232152Z AUTO 16010KT 2SM -RA BR BKN008 OVC011 11/09 A2936 RMK AO2 SLP943 P0004 T01060094

More Conditions Fewer Conditions

10-Day Weather Forecast

Almanac

Astronomy

Nov. 23, 2014 Rise Set
Actual Time
Civil Twilight
Nautical Twilight
Astronomical Twilight
Moon
Length of Visible Light
Length of Day
Tomorrow will be .
, % of the Moon is Illuminated

Today's Extremes

State Highs State Lows

Community

WunderPhotos

Upload Photos

1,773,186 photos uploaded!

WunderBlogs® & News

Nearby

Air Quality

  Air Quality AQ Index Pollutant
Not available.

Snow Depth

Station Depth Elevation

Earthquake Activity

City Distance Mag. Time & Date
Minimum magnitude displayed is 2.5.

Coastal Water Temperatures

Place Temperature

Nearby Weather Stations